Terminal Aerodrome Forecast
Issued by NWS Greer, SC

Home | Current Version | Previous Version | Text Only | Print | Product List | Glossary On
Versions: 1 2 3 4 5 6 7 8 9 10 11 12 13 14 15 16 17 18 19 20 21 22 23 24 25 26 27 28 29 30 31 32 33 34 35 36 37 38 39 40 41 42 43 44 45 46 47 48 49 50
000
FTUS42 KGSP 211551 AAB
TAFCLT
TAF AMD
KCLT 211551Z 2116/2218 19008KT P6SM SCT008 OVC015
     FM212000 19007KT P6SM OVC025
     FM220000 20006KT P6SM BKN040
     FM220500 18005KT 5SM BR BKN013
     FM220800 18006KT 3SM BR BKN003=

USA.gov is the U.S. government's official web portal to all federal, state and local government web resources and services.